createdAt,value
2023-04-01T00:04:15.122Z,9.66
2023-04-01T00:09:20.386Z,9.67
2023-04-01T00:14:24.230Z,9.65
2023-04-01T00:19:27.253Z,9.62
2023-04-01T00:24:33.796Z,9.61
2023-04-01T00:29:37.294Z,9.56
2023-04-01T00:34:42.386Z,9.57
2023-04-01T00:39:47.008Z,9.52
2023-04-01T00:44:52.885Z,9.55
2023-04-01T00:49:59.314Z,9.50
2023-04-01T00:55:08.801Z,9.47
2023-04-01T01:00:16.064Z,9.50
2023-04-01T01:05:21.161Z,9.43
2023-04-01T01:10:31.868Z,9.45
2023-04-01T01:15:42.300Z,9.45
2023-04-01T01:21:21.712Z,9.43
2023-04-01T01:26:44.771Z,9.43
2023-04-01T01:31:58.471Z,9.42
2023-04-01T01:37:10.852Z,9.41
2023-04-01T01:42:19.714Z,9.40
2023-04-01T01:47:25.528Z,9.38
2023-04-01T01:52:30.471Z,9.38
2023-04-01T01:57:36.803Z,9.37
2023-04-01T02:02:42.541Z,9.36
2023-04-01T02:07:52.767Z,9.35
2023-04-01T02:13:01.571Z,9.35
2023-04-01T02:18:06.250Z,9.35
2023-04-01T02:23:12.689Z,9.35
2023-04-01T02:28:20.836Z,9.35
2023-04-01T02:33:25.719Z,9.33
2023-04-01T02:38:30.149Z,9.28
2023-04-01T02:43:35.740Z,9.27
2023-04-01T02:48:38.576Z,9.24
2023-04-01T02:53:42.991Z,9.24
2023-04-01T02:58:45.918Z,9.14
2023-04-01T03:03:49.146Z,9.11
2023-04-01T03:08:59.501Z,9.15
2023-04-01T03:14:03.021Z,9.13
2023-04-01T03:19:06.990Z,9.11
2023-04-01T03:24:12.294Z,9.12
2023-04-01T03:29:16.900Z,9.11
2023-04-01T03:34:20.512Z,9.08
2023-04-01T03:39:24.770Z,8.97
2023-04-01T03:44:28.325Z,8.87
2023-04-01T03:49:33.122Z,8.77
2023-04-01T03:54:37.458Z,8.68
2023-04-01T03:59:41.475Z,8.62
2023-04-01T04:04:44.692Z,8.58
2023-04-01T04:09:51.170Z,8.48
2023-04-01T04:14:53.968Z,8.40
2023-04-01T04:19:56.722Z,8.37
2023-04-01T04:25:01.010Z,8.35
2023-04-01T04:30:04.648Z,8.28
2023-04-01T04:35:08.372Z,8.26
2023-04-01T04:40:13.898Z,8.22
2023-04-01T04:45:18.301Z,8.17
2023-04-01T04:50:29.782Z,8.12
2023-04-01T04:55:34.227Z,8.09
2023-04-01T05:00:58.226Z,8.05
2023-04-01T05:06:06.253Z,8.03
2023-04-01T05:11:14.073Z,8.00
2023-04-01T05:16:21.727Z,7.97
2023-04-01T05:21:24.843Z,7.98
2023-04-01T05:26:31.601Z,8.01
2023-04-01T05:31:34.476Z,7.98
2023-04-01T05:36:38.500Z,8.04
2023-04-01T05:41:42.998Z,8.17
2023-04-01T05:46:45.844Z,8.32
2023-04-01T05:52:06.385Z,8.45
2023-04-01T05:57:13.377Z,8.48
2023-04-01T06:02:19.175Z,8.49
2023-04-01T06:07:24.131Z,8.53
2023-04-01T06:12:52.781Z,8.56
2023-04-01T06:18:12.260Z,8.58
2023-04-01T06:23:40.473Z,8.59
2023-04-01T06:29:18.998Z,8.68
2023-04-01T06:34:49.153Z,8.72
2023-04-01T06:40:23.782Z,8.86
2023-04-01T06:45:38.376Z,8.86
2023-04-01T06:51:10.580Z,8.85
2023-04-01T06:56:49.138Z,8.84
2023-04-01T07:02:03.791Z,8.88
2023-04-01T07:07:16.838Z,9.01
2023-04-01T07:12:38.744Z,9.10
2023-04-01T07:17:56.408Z,9.21
2023-04-01T07:23:03.081Z,9.19
2023-04-01T07:28:15.451Z,9.28
2023-04-01T07:33:32.721Z,9.31
2023-04-01T07:38:45.636Z,9.37
2023-04-01T07:44:00.498Z,9.41
2023-04-01T07:49:15.867Z,9.57
2023-04-01T07:54:26.156Z,9.44
2023-04-01T07:59:35.909Z,9.60
2023-04-01T08:05:12.952Z,9.68
2023-04-01T08:10:23.665Z,9.84
2023-04-01T08:15:55.450Z,10.13
2023-04-01T08:21:18.982Z,10.07
2023-04-01T08:26:32.934Z,10.19
2023-04-01T08:31:41.726Z,10.13
2023-04-01T08:36:54.576Z,10.33
2023-04-01T08:42:26.204Z,10.84
2023-04-01T08:48:18.375Z,10.83
2023-04-01T08:53:35.604Z,10.70
2023-04-01T08:59:08.222Z,10.63
2023-04-01T09:04:30.166Z,10.66
2023-04-01T09:09:54.741Z,10.60
2023-04-01T09:15:40.023Z,10.83
2023-04-01T09:21:00.573Z,10.78
2023-04-01T09:26:28.010Z,10.90
2023-04-01T09:31:50.374Z,10.94
2023-04-01T09:37:22.926Z,10.80
2023-04-01T09:42:46.049Z,10.84
2023-04-01T09:48:11.780Z,10.78
2023-04-01T09:53:29.389Z,10.92
2023-04-01T09:59:03.004Z,11.15
2023-04-01T10:04:56.390Z,11.11
2023-04-01T10:10:31.373Z,10.93
2023-04-01T10:15:53.307Z,10.98
2023-04-01T10:21:09.829Z,10.90
2023-04-01T10:26:49.768Z,11.35
2023-04-01T10:32:48.809Z,11.30
2023-04-01T10:38:31.140Z,11.18
2023-04-01T10:44:13.611Z,11.18
2023-04-01T10:49:46.498Z,11.26
2023-04-01T10:54:56.473Z,11.37
2023-04-01T11:00:34.202Z,11.14
2023-04-01T11:06:32.599Z,11.02
2023-04-01T11:12:12.180Z,10.99
2023-04-01T11:17:46.142Z,11.19
2023-04-01T11:23:21.267Z,11.40
2023-04-01T11:28:55.631Z,11.40
2023-04-01T11:34:12.708Z,11.36
2023-04-01T11:39:26.640Z,11.50
2023-04-01T11:44:45.502Z,11.57
2023-04-01T11:50:12.772Z,11.42
2023-04-01T11:55:37.794Z,11.50
2023-04-01T12:00:57.707Z,11.62
2023-04-01T12:06:07.203Z,11.50
2023-04-01T12:11:20.116Z,11.96
2023-04-01T12:16:42.901Z,12.14
2023-04-01T12:21:56.393Z,12.53
2023-04-01T12:27:12.982Z,13.26
2023-04-01T12:32:26.183Z,13.05
2023-04-01T12:37:38.599Z,13.07
2023-04-01T12:42:58.110Z,13.20
2023-04-01T12:48:54.829Z,12.99
2023-04-01T12:54:20.714Z,12.78
2023-04-01T12:59:55.415Z,13.96
2023-04-01T13:05:14.686Z,13.62
2023-04-01T13:10:32.899Z,13.76
2023-04-01T13:15:44.450Z,13.87
2023-04-01T13:20:54.119Z,13.43
2023-04-01T13:26:14.101Z,13.75
2023-04-01T13:31:33.199Z,13.96
2023-04-01T13:36:44.177Z,14.17
2023-04-01T13:42:07.321Z,15.26
2023-04-01T13:47:29.827Z,14.39
2023-04-01T13:52:49.819Z,13.81
2023-04-01T13:58:13.534Z,13.30
2023-04-01T14:03:40.227Z,13.44
2023-04-01T14:09:12.668Z,13.64
2023-04-01T14:14:31.443Z,13.23
2023-04-01T14:20:00.425Z,13.19
2023-04-01T14:25:33.718Z,13.17
2023-04-01T14:31:11.521Z,13.13
2023-04-01T14:36:36.322Z,12.65
2023-04-01T14:41:50.599Z,11.97
2023-04-01T14:47:20.123Z,11.78
2023-04-01T14:52:30.617Z,11.62
2023-04-01T14:57:35.985Z,11.71
2023-04-01T15:02:51.523Z,11.67
2023-04-01T15:08:19.911Z,11.54
2023-04-01T15:13:45.692Z,11.33
2023-04-01T15:19:00.486Z,11.39
2023-04-01T15:24:13.686Z,11.26
2023-04-01T15:29:46.707Z,11.14
2023-04-01T15:34:56.709Z,11.18
2023-04-01T15:40:10.680Z,11.17
2023-04-01T15:45:37.152Z,10.97
2023-04-01T15:50:51.396Z,10.91
2023-04-01T15:56:01.933Z,10.96
2023-04-01T16:01:20.511Z,10.89
2023-04-01T16:06:45.749Z,11.02
2023-04-01T16:11:59.205Z,11.08
2023-04-01T16:17:15.053Z,11.02
2023-04-01T16:22:25.416Z,10.86
2023-04-01T16:27:38.818Z,10.93
2023-04-01T16:32:51.380Z,11.13
2023-04-01T16:38:01.057Z,11.06
2023-04-01T16:43:14.375Z,10.83
2023-04-01T16:48:23.677Z,10.77
2023-04-01T16:53:38.400Z,10.56
2023-04-01T16:58:59.679Z,10.41
2023-04-01T17:04:13.349Z,10.29
2023-04-01T17:09:39.822Z,10.22
2023-04-01T17:15:01.593Z,10.30
2023-04-01T17:20:26.125Z,10.18
2023-04-01T17:25:48.829Z,10.10
2023-04-01T17:31:03.368Z,10.02
2023-04-01T17:36:14.498Z,9.94
2023-04-01T17:41:31.352Z,9.92
2023-04-01T17:46:44.562Z,9.85
2023-04-01T17:51:55.415Z,9.83
2023-04-01T17:57:16.395Z,9.79
2023-04-01T18:02:33.129Z,9.63
2023-04-01T18:08:05.367Z,9.55
2023-04-01T18:13:31.709Z,9.50
2023-04-01T18:18:54.272Z,9.44
2023-04-01T18:24:02.652Z,9.39
2023-04-01T18:29:20.622Z,9.36
2023-04-01T18:34:41.668Z,9.32
2023-04-01T18:39:52.155Z,9.28
2023-04-01T18:44:59.346Z,9.18
2023-04-01T18:50:17.469Z,9.12
2023-04-01T18:55:31.668Z,9.06
2023-04-01T19:00:40.400Z,9.02
2023-04-01T19:05:47.803Z,8.99
2023-04-01T19:11:00.183Z,8.98
2023-04-01T19:16:11.096Z,8.96
2023-04-01T19:21:20.546Z,8.96
2023-04-01T19:26:29.018Z,8.95
2023-04-01T19:31:46.997Z,8.94
2023-04-01T19:36:55.596Z,8.89
2023-04-01T19:42:03.492Z,8.91
2023-04-01T19:47:22.201Z,8.87
2023-04-01T19:52:33.017Z,8.87
2023-04-01T19:57:42.649Z,8.82
2023-04-01T20:03:07.823Z,8.78
2023-04-01T20:08:19.640Z,8.76
2023-04-01T20:13:35.443Z,8.77
2023-04-01T20:18:47.409Z,8.76
2023-04-01T20:23:58.886Z,8.76
2023-04-01T20:29:25.498Z,8.74
2023-04-01T20:34:46.731Z,8.75
2023-04-01T20:40:23.028Z,8.72
2023-04-01T20:45:36.101Z,8.71
2023-04-01T20:50:48.982Z,8.70
2023-04-01T20:56:13.750Z,8.69
2023-04-01T21:01:28.519Z,8.67
2023-04-01T21:06:50.478Z,8.70
2023-04-01T21:12:07.454Z,8.70
2023-04-01T21:17:15.520Z,8.73
2023-04-01T21:22:43.747Z,8.72
2023-04-01T21:28:06.283Z,8.72
2023-04-01T21:33:28.766Z,8.75
2023-04-01T21:38:50.427Z,8.75
2023-04-01T21:44:29.990Z,8.76
2023-04-01T21:49:57.572Z,8.75
2023-04-01T21:55:39.885Z,8.77
2023-04-01T22:00:48.540Z,8.77
2023-04-01T22:05:57.610Z,8.78
2023-04-01T22:11:10.751Z,8.79
2023-04-01T22:16:26.839Z,8.79
2023-04-01T22:21:39.718Z,8.79
2023-04-01T22:26:51.611Z,8.77
2023-04-01T22:32:02.021Z,8.78
2023-04-01T22:37:10.498Z,8.78
2023-04-01T22:42:28.562Z,8.76
2023-04-01T22:47:42.507Z,8.76
2023-04-01T22:52:51.125Z,8.75
2023-04-01T22:57:59.008Z,8.76
2023-04-01T23:03:20.834Z,8.77
2023-04-01T23:09:11.022Z,8.79
2023-04-01T23:14:52.119Z,8.75
2023-04-01T23:20:06.808Z,8.73
2023-04-01T23:25:25.144Z,8.70
2023-04-01T23:30:51.471Z,8.72
2023-04-01T23:36:06.030Z,8.68
2023-04-01T23:41:19.027Z,8.69
2023-04-01T23:46:23.393Z,8.66
2023-04-01T23:51:31.908Z,8.67
2023-04-01T23:56:43.679Z,8.67
